createdAt,value
2022-12-08T00:00:54.044Z,101262.69
2022-12-08T00:03:23.008Z,101259.13
2022-12-08T00:06:08.819Z,101254.72
2022-12-08T00:08:53.957Z,101248.69
2022-12-08T00:11:20.707Z,101246.09
2022-12-08T00:13:47.372Z,101248.69
2022-12-08T00:16:13.865Z,101239.19
2022-12-08T00:18:40.257Z,101230.66
2022-12-08T00:21:06.856Z,101229.78
2022-12-08T00:23:33.362Z,101238.53
2022-12-08T00:26:04.427Z,101243.75
2022-12-08T00:28:31.877Z,101238.66
2022-12-08T00:30:58.376Z,101230.81
2022-12-08T00:33:25.203Z,101221.22
2022-12-08T00:35:54.814Z,101222.94
2022-12-08T00:38:24.212Z,101220.31
2022-12-08T00:40:52.903Z,101216.00
2022-12-08T00:43:19.370Z,101215.09
2022-12-08T00:45:46.063Z,101210.75
2022-12-08T00:48:12.778Z,101202.84
2022-12-08T00:50:39.245Z,101195.94
2022-12-08T00:53:05.808Z,101200.31
2022-12-08T00:55:32.297Z,101201.16
2022-12-08T00:57:58.822Z,101190.69
2022-12-08T01:00:26.182Z,101187.19
2022-12-08T01:02:52.832Z,101186.38
2022-12-08T01:05:19.426Z,101189.88
2022-12-08T01:07:46.043Z,101180.31
2022-12-08T01:10:12.636Z,101176.84
2022-12-08T01:12:40.749Z,101174.19
2022-12-08T01:15:08.631Z,101181.09
2022-12-08T01:17:37.579Z,101184.59
2022-12-08T01:20:06.205Z,101181.97
2022-12-08T01:22:35.259Z,101184.69
2022-12-08T01:25:02.561Z,101184.69
2022-12-08T01:27:29.023Z,101174.19
2022-12-08T01:29:55.458Z,101169.81
2022-12-08T01:32:21.986Z,101169.81
2022-12-08T01:34:48.504Z,101168.13
2022-12-08T01:37:15.058Z,101168.13
2022-12-08T01:39:41.638Z,101178.69
2022-12-08T01:42:19.945Z,101187.53
2022-12-08T01:44:53.793Z,101187.53
2022-12-08T01:47:21.555Z,101183.31
2022-12-08T01:49:48.506Z,101182.31
2022-12-08T01:52:22.472Z,101177.81
2022-12-08T01:54:53.408Z,101172.66
2022-12-08T01:57:42.026Z,101165.72
2022-12-08T02:00:11.385Z,101171.75
2022-12-08T02:02:53.246Z,101171.75
2022-12-08T02:05:23.165Z,101169.94
2022-12-08T02:07:50.267Z,101169.00
2022-12-08T02:10:21.877Z,101158.69
2022-12-08T02:12:50.678Z,101163.00
2022-12-08T02:15:17.917Z,101155.25
2022-12-08T02:17:54.814Z,101161.31
2022-12-08T02:20:37.456Z,101144.69
2022-12-08T02:23:12.449Z,101142.91
2022-12-08T02:26:31.996Z,101140.31
2022-12-08T02:29:25.927Z,101135.06
2022-12-08T02:31:52.391Z,101127.25
2022-12-08T02:34:37.769Z,101125.56
2022-12-08T02:37:11.437Z,101122.09
2022-12-08T02:40:12.654Z,101126.34
2022-12-08T02:43:13.730Z,101126.34
2022-12-08T02:45:47.159Z,101125.56
2022-12-08T02:48:14.653Z,101118.50
2022-12-08T02:50:41.158Z,101122.91
2022-12-08T02:56:03.728Z,101106.38
2022-12-08T02:58:39.358Z,101099.50
2022-12-08T03:01:18.839Z,101102.19
2022-12-08T03:03:56.396Z,101093.44
2022-12-08T03:06:49.742Z,101089.94
2022-12-08T03:09:34.181Z,101084.72
2022-12-08T03:12:09.632Z,101087.38
2022-12-08T03:14:38.891Z,101090.78
2022-12-08T03:17:06.753Z,101092.59
2022-12-08T03:19:38.085Z,101090.97
2022-12-08T03:22:07.138Z,101090.25
2022-12-08T03:24:40.593Z,101092.19
2022-12-08T03:27:19.179Z,101090.59
2022-12-08T03:29:48.240Z,101088.00
2022-12-08T03:32:39.393Z,101084.34
2022-12-08T03:35:10.975Z,101080.97
2022-12-08T03:37:39.318Z,101076.53
2022-12-08T03:40:08.982Z,101072.25
2022-12-08T03:42:35.666Z,101066.22
2022-12-08T03:45:02.084Z,101052.34
2022-12-08T03:47:28.512Z,101053.09
2022-12-08T03:49:54.997Z,101052.22
2022-12-08T03:52:21.456Z,101049.59
2022-12-08T03:54:48.234Z,101050.44
2022-12-08T03:57:14.782Z,101053.84
2022-12-08T03:59:41.478Z,101046.03
2022-12-08T04:02:08.216Z,101050.34
2022-12-08T04:04:34.891Z,101053.97
2022-12-08T04:07:01.451Z,101052.44
2022-12-08T04:09:27.959Z,101050.69
2022-12-08T04:11:54.559Z,101053.25
2022-12-08T04:14:21.176Z,101047.13
2022-12-08T04:16:47.702Z,101038.41
2022-12-08T04:19:15.068Z,101044.50
2022-12-08T04:21:41.527Z,101040.94
2022-12-08T04:24:11.120Z,101043.41
2022-12-08T04:26:37.596Z,101032.91
2022-12-08T04:29:04.232Z,101033.78
2022-12-08T04:31:30.649Z,101038.06
2022-12-08T04:34:00.418Z,101030.38
2022-12-08T04:36:26.865Z,101031.25
2022-12-08T04:38:53.383Z,101026.84
2022-12-08T04:41:19.819Z,101028.56
2022-12-08T04:43:46.330Z,101016.28
2022-12-08T04:46:13.143Z,101014.41
2022-12-08T04:48:40.030Z,101014.41
2022-12-08T04:51:06.826Z,101018.78
2022-12-08T04:53:33.504Z,101022.31
2022-12-08T04:55:59.928Z,101023.19
2022-12-08T04:58:26.303Z,101010.16
2022-12-08T05:00:52.867Z,101011.88
2022-12-08T05:03:25.149Z,101013.56
2022-12-08T05:05:54.674Z,101011.88
2022-12-08T05:08:21.260Z,101018.88
2022-12-08T05:10:47.702Z,101022.66
2022-12-08T05:13:14.094Z,101022.75
2022-12-08T05:15:40.565Z,101022.69
2022-12-08T05:18:07.741Z,101021.19
2022-12-08T05:20:35.027Z,101020.38
2022-12-08T05:23:01.651Z,101007.34
2022-12-08T05:25:28.298Z,101017.69
2022-12-08T05:28:06.096Z,101016.09
2022-12-08T05:30:41.350Z,101014.59
2022-12-08T05:33:08.100Z,101022.41
2022-12-08T05:35:34.602Z,101016.28
2022-12-08T05:38:01.095Z,101018.91
2022-12-08T05:40:27.693Z,101009.50
2022-12-08T05:42:54.207Z,101011.06
2022-12-08T05:45:20.665Z,101005.78
2022-12-08T05:47:47.371Z,101003.31
2022-12-08T05:50:13.927Z,100999.16
2022-12-08T05:52:40.468Z,101008.56
2022-12-08T05:55:07.187Z,100998.94
2022-12-08T05:57:33.705Z,100995.22
2022-12-08T06:00:00.282Z,101009.03
2022-12-08T06:02:27.340Z,100997.63
2022-12-08T06:04:53.879Z,100993.22
2022-12-08T06:07:20.394Z,100996.59
2022-12-08T06:09:47.182Z,100995.69
2022-12-08T06:12:13.804Z,100994.72
2022-12-08T06:14:40.501Z,100991.09
2022-12-08T06:17:10.283Z,100989.28
2022-12-08T06:19:36.845Z,100992.69
2022-12-08T06:22:03.305Z,100985.63
2022-12-08T06:24:29.829Z,100991.59
2022-12-08T06:26:56.443Z,100986.38
2022-12-08T06:29:25.768Z,100985.28
2022-12-08T06:31:52.902Z,100984.34
2022-12-08T06:34:19.632Z,100990.38
2022-12-08T06:36:46.134Z,100986.94
2022-12-08T06:39:12.692Z,100990.31
2022-12-08T06:41:59.308Z,100993.88
2022-12-08T06:44:25.867Z,100993.03
2022-12-08T06:46:52.365Z,101002.53
2022-12-08T06:49:18.808Z,100999.84
2022-12-08T06:51:45.253Z,100998.88
2022-12-08T06:54:11.745Z,100992.91
2022-12-08T06:56:38.213Z,100991.09
2022-12-08T06:59:04.707Z,100994.38
2022-12-08T07:01:31.269Z,100993.34
2022-12-08T07:03:57.862Z,100995.09
2022-12-08T07:06:25.044Z,100991.56
2022-12-08T07:08:51.832Z,100992.28
2022-12-08T07:11:22.059Z,100992.22
2022-12-08T07:13:49.282Z,100991.31
2022-12-08T07:16:15.877Z,100996.53
2022-12-08T07:18:43.049Z,100987.78
2022-12-08T07:21:17.414Z,100989.38
2022-12-08T07:23:55.954Z,101000.53
2022-12-08T07:26:24.489Z,100986.66
2022-12-08T07:28:50.932Z,100996.19
2022-12-08T07:31:22.858Z,100986.50
2022-12-08T07:33:50.366Z,100996.03
2022-12-08T07:36:17.491Z,100990.69
2022-12-08T07:38:44.033Z,100990.69
2022-12-08T07:41:19.475Z,100996.84
2022-12-08T07:43:45.907Z,100997.53
2022-12-08T07:46:13.707Z,100990.44
2022-12-08T07:48:40.634Z,100993.94
2022-12-08T07:51:10.801Z,100994.09
2022-12-08T07:53:42.544Z,100997.69
2022-12-08T07:56:10.610Z,100993.44
2022-12-08T07:58:41.191Z,100990.09
2022-12-08T08:01:22.304Z,100995.38
2022-12-08T08:03:49.039Z,100992.88
2022-12-08T08:06:15.882Z,100996.47
2022-12-08T08:08:42.529Z,100996.53
2022-12-08T08:11:18.978Z,100992.38
2022-12-08T08:13:47.345Z,100990.72
2022-12-08T08:16:14.225Z,100985.63
2022-12-08T08:18:41.636Z,100994.38
2022-12-08T08:24:05.556Z,101005.91
2022-12-08T08:26:32.020Z,101002.59
2022-12-08T08:29:00.679Z,101008.78
2022-12-08T08:31:36.403Z,101009.75
2022-12-08T08:34:06.529Z,101011.56
2022-12-08T08:36:33.364Z,101014.31
2022-12-08T08:39:00.132Z,101011.78
2022-12-08T08:41:26.572Z,101017.06
2022-12-08T08:43:57.050Z,101018.13
2022-12-08T08:46:23.579Z,101018.16
2022-12-08T08:48:50.091Z,101015.59
2022-12-08T08:51:16.757Z,101020.06
2022-12-08T08:53:43.838Z,101020.09
2022-12-08T08:56:19.399Z,101020.16
2022-12-08T08:58:48.564Z,101019.38
2022-12-08T09:01:28.597Z,101020.28
2022-12-08T09:03:57.942Z,101011.66
2022-12-08T09:06:25.566Z,101007.31
2022-12-08T09:08:52.235Z,101007.34
2022-12-08T09:11:18.977Z,101009.13
2022-12-08T09:13:49.492Z,101001.31
2022-12-08T09:16:17.331Z,101007.50
2022-12-08T09:18:44.199Z,101006.59
2022-12-08T09:21:16.554Z,101005.72
2022-12-08T09:23:46.673Z,101015.25
2022-12-08T09:26:13.127Z,101011.81
2022-12-08T09:28:39.547Z,101009.22
2022-12-08T09:31:06.209Z,101012.66
2022-12-08T09:33:32.718Z,101004.81
2022-12-08T09:36:08.197Z,101013.50
2022-12-08T09:38:37.225Z,101009.09
2022-12-08T09:41:14.129Z,101005.66
2022-12-08T09:43:59.535Z,101010.75
2022-12-08T09:46:28.679Z,101012.47
2022-12-08T09:48:58.205Z,101021.31
2022-12-08T09:51:29.757Z,101018.78
2022-12-08T09:54:34.044Z,101017.19
2022-12-08T09:57:07.678Z,101018.00
2022-12-08T09:59:35.551Z,101021.31
2022-12-08T10:02:10.425Z,101019.47
2022-12-08T10:04:38.625Z,101013.41
2022-12-08T10:07:27.484Z,101011.59
2022-12-08T10:10:09.962Z,101011.72
2022-12-08T10:12:48.006Z,101018.72
2022-12-08T10:15:33.101Z,101018.78
2022-12-08T10:18:03.476Z,101013.63
2022-12-08T10:21:30.185Z,101004.81
2022-12-08T10:24:03.763Z,101003.81
2022-12-08T10:26:35.422Z,101000.38
2022-12-08T10:29:06.491Z,101002.03
2022-12-08T10:31:36.160Z,101012.47
2022-12-08T10:34:17.446Z,101003.88
2022-12-08T10:36:58.038Z,100996.88
2022-12-08T10:39:34.046Z,101006.53
2022-12-08T10:42:19.037Z,100990.22
2022-12-08T10:44:58.468Z,100990.31
2022-12-08T10:47:27.708Z,100991.91
2022-12-08T10:50:09.416Z,100993.66
2022-12-08T10:52:42.159Z,100993.66
2022-12-08T10:55:20.819Z,100983.16
2022-12-08T10:57:50.687Z,100984.78
2022-12-08T11:00:27.536Z,100978.63
2022-12-08T11:02:58.312Z,100980.44
2022-12-08T11:05:34.635Z,100988.16
2022-12-08T11:08:03.002Z,100989.06
2022-12-08T11:10:42.696Z,100990.00
2022-12-08T11:13:27.553Z,100993.50
2022-12-08T11:16:00.264Z,100989.16
2022-12-08T11:18:40.532Z,100984.66
2022-12-08T11:21:13.934Z,100983.63
2022-12-08T11:23:42.717Z,100983.53
2022-12-08T11:26:27.342Z,100982.56
2022-12-08T11:28:58.175Z,100977.38
2022-12-08T11:31:34.479Z,100971.25
2022-12-08T11:34:02.816Z,100961.59
2022-12-08T11:36:35.489Z,100956.31
2022-12-08T11:39:04.456Z,100946.53
2022-12-08T11:41:37.625Z,100940.25
2022-12-08T11:44:28.565Z,100942.84
2022-12-08T11:46:59.962Z,100935.88
2022-12-08T11:49:36.662Z,100930.56
2022-12-08T11:52:14.641Z,100927.06
2022-12-08T11:54:52.281Z,100926.09
2022-12-08T11:57:24.337Z,100922.56
2022-12-08T11:59:57.319Z,100923.34
2022-12-08T12:02:27.369Z,100915.47
2022-12-08T12:05:05.674Z,100923.28
2022-12-08T12:07:51.017Z,100924.06
2022-12-08T12:10:41.035Z,100914.53
2022-12-08T12:13:29.339Z,100922.34
2022-12-08T12:16:27.129Z,100912.72
2022-12-08T12:18:59.256Z,100913.38
2022-12-08T12:21:33.723Z,100912.47
2022-12-08T12:24:25.535Z,100913.22
2022-12-08T12:26:59.942Z,100909.72
2022-12-08T12:29:30.674Z,100903.66
2022-12-08T12:32:03.676Z,100908.72
2022-12-08T12:34:37.231Z,100906.91
2022-12-08T12:37:10.668Z,100905.22
2022-12-08T12:39:57.196Z,100907.69
2022-12-08T12:42:55.455Z,100899.81
2022-12-08T12:45:21.904Z,100890.28
2022-12-08T12:47:55.830Z,100890.28
2022-12-08T12:50:33.279Z,100892.88
2022-12-08T12:53:27.929Z,100894.50
2022-12-08T12:56:04.456Z,100891.00
2022-12-08T12:58:34.063Z,100897.06
2022-12-08T13:01:12.637Z,100895.31
2022-12-08T13:03:49.821Z,100889.22
2022-12-08T13:06:39.288Z,100883.09
2022-12-08T13:09:07.280Z,100893.59
2022-12-08T13:11:51.481Z,100891.84
2022-12-08T13:14:33.343Z,100881.38
2022-12-08T13:17:02.570Z,100889.16
2022-12-08T13:19:36.656Z,100889.94
2022-12-08T13:22:03.501Z,100887.47
2022-12-08T13:24:35.025Z,100883.09
2022-12-08T13:27:04.232Z,100879.63
2022-12-08T13:29:35.049Z,100882.94
2022-12-08T13:32:02.735Z,100885.56
2022-12-08T13:34:51.635Z,100877.72
2022-12-08T13:37:53.931Z,100874.19
2022-12-08T13:40:25.505Z,100868.00
2022-12-08T13:43:48.421Z,100869.69
2022-12-08T13:53:48.737Z,100872.97
2022-12-08T13:56:24.712Z,100870.34
2022-12-08T13:57:56.047Z,100872.13
2022-12-08T14:00:27.418Z,100868.53
2022-12-08T14:02:58.581Z,100874.59
2022-12-08T14:05:48.075Z,100873.78
2022-12-08T14:11:35.166Z,100880.66
2022-12-08T14:14:09.052Z,100880.59
2022-12-08T14:16:42.256Z,100880.59
2022-12-08T14:19:41.068Z,100883.22
2022-12-08T14:22:13.599Z,100874.50
2022-12-08T14:24:47.704Z,100876.22
2022-12-08T14:27:17.449Z,100880.59
2022-12-08T14:29:53.302Z,100879.66
2022-12-08T14:32:25.660Z,100884.88
2022-12-08T14:35:15.552Z,100884.88
2022-12-08T14:37:44.412Z,100882.28
2022-12-08T14:40:35.798Z,100885.84
2022-12-08T14:43:14.862Z,100887.50
2022-12-08T14:45:41.465Z,100883.22
2022-12-08T14:48:36.132Z,100880.59
2022-12-08T14:51:20.084Z,100881.44
2022-12-08T14:53:48.001Z,100878.00
2022-12-08T14:56:22.796Z,100879.75
2022-12-08T14:59:02.308Z,100878.91
2022-12-08T15:01:29.782Z,100872.78
2022-12-08T15:04:03.387Z,100882.28
2022-12-08T15:06:31.575Z,100873.69
2022-12-08T15:08:59.439Z,100864.94
2022-12-08T15:11:34.583Z,100871.00
2022-12-08T15:14:01.688Z,100864.94
2022-12-08T15:16:42.953Z,100874.50
2022-12-08T15:19:40.016Z,100870.28
2022-12-08T15:22:17.998Z,100869.44
2022-12-08T15:24:47.443Z,100864.28
2022-12-08T15:27:20.973Z,100864.22
2022-12-08T15:29:48.360Z,100861.59
2022-12-08T15:32:21.717Z,100863.34
2022-12-08T15:34:48.476Z,100863.41
2022-12-08T15:37:26.373Z,100861.69
2022-12-08T15:39:55.458Z,100862.50
2022-12-08T15:42:22.024Z,100869.50
2022-12-08T15:44:48.611Z,100866.91
2022-12-08T15:47:21.208Z,100880.78
2022-12-08T15:49:49.716Z,100881.69
2022-12-08T15:52:19.090Z,100878.19
2022-12-08T15:54:46.009Z,100879.81
2022-12-08T16:00:50.529Z,100880.66
2022-12-08T16:03:59.864Z,100871.97
2022-12-08T16:07:12.960Z,100872.88
2022-12-08T16:09:12.524Z,100875.38
2022-12-08T16:12:07.686Z,100872.81
2022-12-08T16:17:22.082Z,100870.16
2022-12-08T16:19:52.005Z,100875.38
2022-12-08T16:22:54.481Z,100877.91
2022-12-08T16:25:20.231Z,100878.00
2022-12-08T16:28:29.873Z,100876.28
2022-12-08T16:30:41.106Z,100868.44
2022-12-08T16:33:10.483Z,100868.44
2022-12-08T16:35:36.987Z,100860.63
2022-12-08T16:38:04.195Z,100853.63
2022-12-08T16:40:30.876Z,100856.94
2022-12-08T16:43:00.389Z,100855.38
2022-12-08T16:45:30.363Z,100852.78
2022-12-08T16:47:59.557Z,100855.38
2022-12-08T16:50:34.433Z,100860.63
2022-12-08T16:53:03.966Z,100859.91
2022-12-08T16:55:30.958Z,100858.09
2022-12-08T16:58:01.065Z,100860.69
2022-12-08T17:00:36.685Z,100854.59
2022-12-08T17:03:04.992Z,100865.03
2022-12-08T17:05:32.233Z,100861.59
2022-12-08T17:07:58.980Z,100868.56
2022-12-08T17:10:28.359Z,100867.81
2022-12-08T17:12:58.518Z,100865.19
2022-12-08T17:15:27.289Z,100859.97
2022-12-08T17:17:54.755Z,100857.34
2022-12-08T17:20:24.024Z,100856.50
2022-12-08T17:22:52.981Z,100863.50
2022-12-08T17:25:19.612Z,100854.75
2022-12-08T17:27:46.585Z,100860.81
2022-12-08T17:30:15.834Z,100854.88
2022-12-08T17:32:43.029Z,100848.72
2022-12-08T17:35:09.721Z,100851.34
2022-12-08T17:37:36.314Z,100853.19
2022-12-08T17:40:03.472Z,100861.78
2022-12-08T17:42:30.397Z,100852.13
2022-12-08T17:44:56.891Z,100862.59
2022-12-08T17:47:23.772Z,100856.44
2022-12-08T17:49:50.425Z,100858.09
2022-12-08T17:52:16.905Z,100855.38
2022-12-08T17:54:43.607Z,100852.63
2022-12-08T17:57:10.308Z,100845.59
2022-12-08T17:59:39.267Z,100855.63
2022-12-08T18:02:06.080Z,100848.63
2022-12-08T18:04:33.729Z,100852.69
2022-12-08T18:07:01.468Z,100858.13
2022-12-08T18:09:31.170Z,100856.38
2022-12-08T18:12:00.783Z,100845.03
2022-12-08T18:14:29.645Z,100851.13
2022-12-08T18:16:58.499Z,100851.13
2022-12-08T18:19:26.285Z,100846.75
2022-12-08T18:21:52.893Z,100851.19
2022-12-08T18:24:23.130Z,100845.94
2022-12-08T18:26:52.213Z,100846.91
2022-12-08T18:29:20.669Z,100845.13
2022-12-08T18:31:47.685Z,100846.91
2022-12-08T18:34:14.278Z,100839.97
2022-12-08T18:36:40.834Z,100841.72
2022-12-08T18:39:11.013Z,100834.88
2022-12-08T18:41:37.854Z,100841.94
2022-12-08T18:44:04.611Z,100849.00
2022-12-08T18:46:31.164Z,100846.47
2022-12-08T18:49:00.964Z,100857.00
2022-12-08T18:51:27.771Z,100857.97
2022-12-08T18:53:54.297Z,100865.81
2022-12-08T18:56:27.435Z,100862.41
2022-12-08T18:59:01.302Z,100861.72
2022-12-08T19:01:30.330Z,100864.41
2022-12-08T19:04:26.850Z,100870.53
2022-12-08T19:06:46.204Z,100865.38
2022-12-08T19:09:14.193Z,100868.16
2022-12-08T19:11:40.991Z,100862.97
2022-12-08T19:14:10.113Z,100863.94
2022-12-08T19:16:37.060Z,100865.81
2022-12-08T19:19:04.616Z,100869.41
2022-12-08T19:21:31.746Z,100867.78
2022-12-08T19:23:58.704Z,100871.31
2022-12-08T19:26:27.155Z,100873.06
2022-12-08T19:28:54.323Z,100873.13
2022-12-08T19:31:20.981Z,100871.44
2022-12-08T19:33:47.712Z,100866.34
2022-12-08T19:36:17.942Z,100872.63
2022-12-08T19:39:02.992Z,100877.84
2022-12-08T19:41:48.307Z,100877.84
2022-12-08T19:44:32.996Z,100883.97
2022-12-08T19:47:00.460Z,100882.28
2022-12-08T19:49:30.169Z,100888.47
2022-12-08T19:51:57.101Z,100879.81
2022-12-08T19:54:23.946Z,100885.03
2022-12-08T19:56:50.432Z,100875.50
2022-12-08T19:59:18.182Z,100872.97
2022-12-08T20:01:47.918Z,100879.97
2022-12-08T20:04:15.731Z,100885.22
2022-12-08T20:06:44.268Z,100892.28
2022-12-08T20:09:12.491Z,100892.28
2022-12-08T20:11:39.671Z,100887.06
2022-12-08T20:14:07.064Z,100890.53
2022-12-08T20:16:34.121Z,100895.75
2022-12-08T20:19:01.223Z,100895.75
2022-12-08T20:21:27.968Z,100893.13
2022-12-08T20:23:54.831Z,100898.34
2022-12-08T20:26:25.377Z,100891.44
2022-12-08T20:28:52.640Z,100892.38
2022-12-08T20:31:25.108Z,100893.28
2022-12-08T20:33:52.256Z,100897.63
2022-12-08T20:36:21.087Z,100895.97
2022-12-08T20:38:50.748Z,100898.63
2022-12-08T20:41:18.251Z,100894.34
2022-12-08T20:43:47.371Z,100901.22
2022-12-08T20:46:16.805Z,100896.94
2022-12-08T20:48:44.574Z,100910.00
2022-12-08T20:51:16.845Z,100908.28
2022-12-08T20:53:43.726Z,100904.81
2022-12-08T20:56:17.969Z,100910.91
2022-12-08T20:58:45.126Z,100907.50
2022-12-08T21:01:14.549Z,100904.88
2022-12-08T21:03:41.727Z,100909.31
2022-12-08T21:06:13.441Z,100909.31
2022-12-08T21:08:40.869Z,100906.78
2022-12-08T21:11:08.893Z,100900.72
2022-12-08T21:13:37.004Z,100911.16
2022-12-08T21:16:09.325Z,100916.47
2022-12-08T21:18:39.766Z,100925.13
2022-12-08T21:21:14.795Z,100911.28
2022-12-08T21:23:42.825Z,100914.81
2022-12-08T21:26:21.071Z,100923.56
2022-12-08T21:28:48.262Z,100911.41
2022-12-08T21:31:21.825Z,100914.94
2022-12-08T21:33:49.199Z,100914.03
2022-12-08T21:36:19.048Z,100914.03
2022-12-08T21:38:46.915Z,100911.41
2022-12-08T21:41:37.424Z,100914.94
2022-12-08T21:44:05.416Z,100914.94
2022-12-08T21:46:35.137Z,100913.22
2022-12-08T21:49:05.102Z,100915.06
2022-12-08T21:51:33.796Z,100920.28
2022-12-08T21:54:01.046Z,100915.06
2022-12-08T21:56:27.866Z,100919.44
2022-12-08T21:58:54.669Z,100925.53
2022-12-08T22:01:22.217Z,100917.69
2022-12-08T22:03:48.975Z,100916.88
2022-12-08T22:06:15.786Z,100921.19
2022-12-08T22:08:42.515Z,100926.50
2022-12-08T22:11:11.043Z,100919.50
2022-12-08T22:13:39.836Z,100926.44
2022-12-08T22:16:10.063Z,100926.50
2022-12-08T22:18:37.150Z,100927.34
2022-12-08T22:21:11.668Z,100926.50
2022-12-08T22:23:40.976Z,100930.84
2022-12-08T22:26:08.358Z,100935.31
2022-12-08T22:28:40.738Z,100934.50
2022-12-08T22:31:09.341Z,100937.13
2022-12-08T22:33:36.385Z,100931.91
2022-12-08T22:36:10.064Z,100935.38
2022-12-08T22:38:37.357Z,100924.88
2022-12-08T22:41:05.545Z,100917.03
2022-12-08T22:43:32.847Z,100920.53
2022-12-08T22:45:59.396Z,100921.44
2022-12-08T22:48:26.199Z,100921.44
2022-12-08T22:51:01.353Z,100916.31
2022-12-08T22:53:28.619Z,100912.06
2022-12-08T22:55:55.253Z,100906.84
2022-12-08T22:58:22.006Z,100908.66
2022-12-08T23:00:48.544Z,100906.97
2022-12-08T23:03:15.392Z,100907.81
2022-12-08T23:05:42.354Z,100906.09
2022-12-08T23:08:13.105Z,100907.88
2022-12-08T23:10:40.159Z,100911.41
2022-12-08T23:13:06.628Z,100903.56
2022-12-08T23:15:33.550Z,100908.78
2022-12-08T23:18:00.232Z,100912.31
2022-12-08T23:20:27.188Z,100908.78
2022-12-08T23:22:54.284Z,100907.94
2022-12-08T23:25:20.973Z,100914.00
2022-12-08T23:27:47.689Z,100908.78
2022-12-08T23:30:15.080Z,100912.31
2022-12-08T23:32:41.802Z,100910.56
2022-12-08T23:35:09.114Z,100897.56
2022-12-08T23:37:36.068Z,100903.72
2022-12-08T23:40:04.100Z,100901.13
2022-12-08T23:42:31.018Z,100902.00
2022-12-08T23:45:00.795Z,100908.13
2022-12-08T23:47:27.535Z,100902.00
2022-12-08T23:49:54.028Z,100905.53
2022-12-08T23:52:20.716Z,100904.69
2022-12-08T23:54:50.297Z,100900.38
2022-12-08T23:57:17.111Z,100893.38
2022-12-08T23:59:43.791Z,100897.75
